Time;durP1;ratioP1;P1;durP2;ratioP2;P2;SDS_P1;SDS_P2;PMS_P1;PMS_P2;Temp;Humidity;BMP_temperature;BMP_pressure;BME280_temperature;BME280_humidity;BME280_pressure;Samples;Min_cycle;Max_cycle;Signal;HPM_P1;HPM_P2
2023/05/24 00:00:54;;;;;;;18.95;4.43;;;;;;;6.86;100.00;102325.28;5001532;28;20034;-70
2023/05/24 00:03:20;;;;;;;20.27;4.50;;;;;;;6.83;100.00;102312.03;5001004;28;20046;-66
2023/05/24 00:05:45;;;;;;;18.80;4.47;;;;;;;6.74;100.00;102315.16;5003095;28;20030;-68
2023/05/24 00:08:11;;;;;;;19.88;4.35;;;;;;;6.70;100.00;102314.91;5002164;28;20045;-69
2023/05/24 00:10:36;;;;;;;17.65;4.82;;;;;;;6.69;100.00;102306.16;5001844;28;20030;-69
2023/05/24 00:13:02;;;;;;;19.90;4.60;;;;;;;6.73;100.00;102310.72;5001945;28;20056;-68
2023/05/24 00:15:27;;;;;;;19.67;4.57;;;;;;;6.80;100.00;102307.53;5006490;28;20057;-68
2023/05/24 00:17:52;;;;;;;20.05;4.55;;;;;;;6.80;100.00;102296.09;5005809;28;20037;-69
2023/05/24 00:20:19;;;;;;;19.42;4.50;;;;;;;6.78;100.00;102295.13;5005621;28;20026;-69
2023/05/24 00:22:45;;;;;;;19.20;4.45;;;;;;;6.80;100.00;102290.81;5005784;28;20496;-69
2023/05/24 00:25:11;;;;;;;17.10;4.20;;;;;;;6.72;100.00;102297.50;5004619;28;20037;-69
2023/05/24 00:27:36;;;;;;;20.27;4.80;;;;;;;6.67;100.00;102291.13;5005305;28;20424;-70
2023/05/24 00:30:03;;;;;;;18.55;4.30;;;;;;;6.63;100.00;102291.00;5005728;28;20388;-70
2023/05/24 00:32:28;;;;;;;17.42;4.20;;;;;;;6.59;100.00;102291.69;5005749;28;20469;-69
2023/05/24 00:34:54;;;;;;;18.35;4.50;;;;;;;6.59;100.00;102288.19;5004473;28;20038;-68
2023/05/24 00:37:19;;;;;;;17.35;4.18;;;;;;;6.57;100.00;102295.13;5006216;28;20452;-68
2023/05/24 00:39:44;;;;;;;18.52;4.60;;;;;;;6.59;100.00;102290.81;5005826;28;20041;-68
2023/05/24 00:42:10;;;;;;;18.02;4.30;;;;;;;6.47;100.00;102290.28;4988575;28;20366;-68
2023/05/24 00:44:35;;;;;;;19.35;4.25;;;;;;;6.42;100.00;102282.19;5007351;28;20034;-69
2023/05/24 00:47:00;;;;;;;21.85;4.60;;;;;;;6.32;100.00;102282.59;5005236;28;20148;-69
2023/05/24 00:49:26;;;;;;;19.38;4.55;;;;;;;6.24;100.00;102285.78;5005173;28;20034;-68
2023/05/24 00:51:53;;;;;;;20.48;4.63;;;;;;;6.18;100.00;102285.50;5004146;28;20026;-69
2023/05/24 00:54:19;;;;;;;17.63;4.68;;;;;;;6.14;100.00;102283.56;5004185;28;20022;-69
2023/05/24 00:56:46;;;;;;;18.67;4.75;;;;;;;6.12;100.00;102287.88;5004226;28;20065;-70
2023/05/24 00:59:12;;;;;;;20.77;4.78;;;;;;;6.11;100.00;102286.94;5004716;28;20516;-68
2023/05/24 01:01:38;;;;;;;19.52;4.72;;;;;;;6.15;100.00;102281.88;5004820;28;20378;-71
2023/05/24 01:04:04;;;;;;;18.85;4.60;;;;;;;6.20;100.00;102283.84;5002790;28;20073;-68
2023/05/24 01:06:35;;;;;;;18.70;4.88;;;;;;;6.17;100.00;102280.19;5004678;28;20397;-69
2023/05/24 01:09:18;;;;;;;20.17;4.90;;;;;;;6.22;100.00;102283.94;5005298;28;20033;-68
2023/05/24 01:12:02;;;;;;;17.98;4.97;;;;;;;6.17;100.00;102278.47;5006077;28;20092;-70
2023/05/24 01:15:05;;;;;;;18.33;4.65;;;;;;;6.05;100.00;102276.19;5005398;28;20358;-69
2023/05/24 01:17:41;;;;;;;19.73;4.72;;;;;;;5.84;100.00;102270.81;5003075;28;20077;-69
2023/05/24 01:20:09;;;;;;;19.73;5.20;;;;;;;5.73;100.00;102272.94;5004694;28;20397;-68
2023/05/24 01:23:06;;;;;;;20.45;4.78;;;;;;;5.78;100.00;102273.13;5004251;28;20092;-69
2023/05/24 01:26:07;;;;;;;20.38;5.05;;;;;;;5.72;100.00;102267.59;5004212;28;20028;-70
2023/05/24 01:28:34;;;;;;;19.40;4.93;;;;;;;5.72;100.00;102267.59;4984230;28;20117;-69
2023/05/24 01:31:00;;;;;;;21.02;5.28;;;;;;;5.70;100.00;102272.78;5004270;28;20065;-70
2023/05/24 01:33:26;;;;;;;19.25;5.07;;;;;;;5.71;100.00;102269.34;5003521;28;20026;-68
2023/05/24 01:35:51;;;;;;;17.10;4.68;;;;;;;5.65;100.00;102266.44;5003930;28;20038;-70
2023/05/24 01:38:16;;;;;;;18.08;4.53;;;;;;;5.74;100.00;102277.34;5004314;28;20034;-69
2023/05/24 01:40:43;;;;;;;20.67;5.28;;;;;;;5.70;100.00;102275.41;5003645;28;20468;-70
2023/05/24 01:43:26;;;;;;;19.80;5.38;;;;;;;5.73;100.00;102277.28;5003682;28;20540;-68
2023/05/24 01:46:16;;;;;;;19.60;4.95;;;;;;;5.74;100.00;102268.59;5004623;28;20056;-69
2023/05/24 01:48:47;;;;;;;21.50;5.70;;;;;;;5.83;100.00;102271.63;5003636;28;20026;-69
2023/05/24 01:51:17;;;;;;;23.17;5.55;;;;;;;5.85;100.00;102259.47;5003765;28;20495;-69
2023/05/24 01:53:48;;;;;;;19.75;5.25;;;;;;;5.79;100.00;102256.56;5004794;28;20389;-69
2023/05/24 01:56:16;;;;;;;18.58;5.03;;;;;;;5.70;100.00;102251.78;5002804;28;20026;-69
2023/05/24 01:58:43;;;;;;;21.63;5.13;;;;;;;5.66;100.00;102254.22;5003516;28;20075;-69
2023/05/24 02:01:09;;;;;;;20.15;5.38;;;;;;;5.67;100.00;102262.16;5003906;28;20065;-69
2023/05/24 02:03:37;;;;;;;20.38;5.38;;;;;;;5.67;100.00;102262.16;5002966;28;20109;-69
2023/05/24 02:06:02;;;;;;;20.48;5.68;;;;;;;5.64;100.00;102271.63;5004512;28;20080;-68
2023/05/24 02:08:28;;;;;;;18.98;5.40;;;;;;;5.63;100.00;102268.06;5003838;28;20026;-69
2023/05/24 02:10:53;;;;;;;20.90;5.38;;;;;;;5.54;100.00;102265.91;5004013;28;20477;-69
2023/05/24 02:13:18;;;;;;;20.70;5.30;;;;;;;5.46;100.00;102271.63;5004148;28;20035;-70
2023/05/24 02:15:44;;;;;;;19.83;5.28;;;;;;;5.40;100.00;102272.22;5002801;28;20109;-69
2023/05/24 02:18:10;;;;;;;19.08;5.57;;;;;;;5.33;100.00;102280.59;4986390;28;20559;-70
2023/05/24 02:20:36;;;;;;;21.20;6.32;;;;;;;5.28;100.00;102276.88;5003097;28;20031;-69
2023/05/24 02:23:05;;;;;;;21.98;5.97;;;;;;;5.26;100.00;102275.88;5003101;28;20497;-70
2023/05/24 02:25:32;;;;;;;20.48;5.63;;;;;;;5.26;100.00;102279.44;5005068;28;20032;-70
2023/05/24 02:27:58;;;;;;;20.05;5.53;;;;;;;5.23;100.00;102277.56;5002856;28;20164;-68
2023/05/24 02:30:24;;;;;;;19.63;5.53;;;;;;;5.19;100.00;102277.34;5003584;28;20029;-69
2023/05/24 02:32:49;;;;;;;21.00;5.70;;;;;;;5.17;100.00;102285.13;5003762;28;20038;-68
2023/05/24 02:35:15;;;;;;;19.30;5.90;;;;;;;5.18;100.00;102279.03;5002363;28;20034;-67
2023/05/24 02:37:40;;;;;;;21.63;5.97;;;;;;;5.15;100.00;102276.25;5002935;28;20034;-68
2023/05/24 02:40:07;;;;;;;20.98;6.28;;;;;;;5.23;100.00;102274.03;5000477;28;20026;-69
2023/05/24 02:42:32;;;;;;;18.92;5.60;;;;;;;5.17;100.00;102272.00;5003417;28;20026;-69
2023/05/24 02:44:57;;;;;;;22.13;6.18;;;;;;;5.23;100.00;102272.31;5002216;28;20050;-69
2023/05/24 02:47:25;;;;;;;20.75;6.10;;;;;;;5.21;100.00;102281.84;5003718;28;20035;-69
2023/05/24 02:49:51;;;;;;;21.02;5.90;;;;;;;5.19;100.00;102279.94;5004467;28;20026;-70
2023/05/24 02:52:20;;;;;;;23.55;6.55;;;;;;;5.19;100.00;102286.09;5004320;28;20037;-69
2023/05/24 02:54:46;;;;;;;21.70;5.90;;;;;;;5.07;100.00;102283.75;4985822;28;20113;-69
2023/05/24 02:57:11;;;;;;;21.50;5.90;;;;;;;5.02;100.00;102279.09;5003867;28;20124;-69
2023/05/24 02:59:36;;;;;;;18.98;5.65;;;;;;;4.91;100.00;102275.97;5003498;28;20045;-69
2023/05/24 03:02:02;;;;;;;19.10;5.80;;;;;;;4.80;100.00;102287.63;5002891;28;20064;-70
2023/05/24 03:04:27;;;;;;;20.60;6.25;;;;;;;4.79;100.00;102284.09;4999878;28;20034;-70
2023/05/24 03:06:53;;;;;;;21.75;6.30;;;;;;;4.81;100.00;102284.19;5002906;28;20048;-69
2023/05/24 03:09:18;;;;;;;20.90;5.80;;;;;;;4.88;100.00;102287.19;4985826;28;20045;-69
2023/05/24 03:11:44;;;;;;;21.88;6.78;;;;;;;4.84;100.00;102281.72;5002503;28;20027;-71
2023/05/24 03:14:10;;;;;;;21.80;6.22;;;;;;;4.80;100.00;102285.00;5003193;28;20045;-70
2023/05/24 03:16:35;;;;;;;20.75;6.00;;;;;;;4.79;100.00;102281.47;5000767;28;20030;-68
2023/05/24 03:19:02;;;;;;;19.98;5.88;;;;;;;4.77;100.00;102277.88;5002979;28;20496;-69
2023/05/24 03:21:27;;;;;;;20.15;5.93;;;;;;;4.79;100.00;102273.63;5003246;28;20026;-69
2023/05/24 03:23:52;;;;;;;22.35;6.45;;;;;;;4.74;100.00;102275.09;5002074;28;20393;-69
2023/05/24 03:26:19;;;;;;;20.08;5.85;;;;;;;4.70;100.00;102265.28;5002131;28;20069;-70
2023/05/24 03:28:44;;;;;;;20.00;6.03;;;;;;;4.63;100.00;102273.63;5002800;28;20041;-68
2023/05/24 03:31:11;;;;;;;19.55;6.00;;;;;;;4.70;100.00;102273.13;5002900;28;20034;-69
2023/05/24 03:33:36;;;;;;;20.63;6.07;;;;;;;4.69;100.00;102268.75;5001179;28;20362;-70
2023/05/24 03:36:03;;;;;;;21.25;6.00;;;;;;;4.64;100.00;102264.97;5002943;28;20036;-69
2023/05/24 03:38:28;;;;;;;22.27;6.43;;;;;;;4.70;100.00;102271.44;5002525;28;20042;-70
2023/05/24 03:40:54;;;;;;;21.17;6.30;;;;;;;4.74;100.00;102272.47;5001290;28;20045;-70
2023/05/24 03:43:20;;;;;;;25.55;7.30;;;;;;;4.76;100.00;102269.94;5002396;28;20065;-68
2023/05/24 03:45:45;;;;;;;21.80;6.45;;;;;;;4.81;100.00;102271.09;5000994;28;20489;-69
2023/05/24 03:48:12;;;;;;;23.55;7.07;;;;;;;4.85;100.00;102271.31;5001880;28;20544;-69
2023/05/24 03:50:37;;;;;;;21.25;6.85;;;;;;;4.88;100.00;102273.19;4984812;28;20030;-69
2023/05/24 03:53:03;;;;;;;21.75;7.03;;;;;;;4.92;100.00;102271.59;5002006;28;20081;-70
2023/05/24 03:55:28;;;;;;;22.23;6.78;;;;;;;4.85;100.00;102273.03;5002368;28;20023;-69
2023/05/24 03:57:54;;;;;;;22.25;6.82;;;;;;;4.81;100.00;102271.09;5001329;28;20056;-70
2023/05/24 04:00:20;;;;;;;20.65;6.47;;;;;;;4.86;100.00;102269.56;5001490;28;20054;-69
2023/05/24 04:02:45;;;;;;;23.38;7.03;;;;;;;4.82;100.00;102271.16;5002866;28;20022;-69
2023/05/24 04:05:13;;;;;;;23.17;7.45;;;;;;;4.80;100.00;102267.53;5003304;28;20041;-72
2023/05/24 04:07:39;;;;;;;23.65;7.43;;;;;;;4.81;100.00;102265.84;5002674;28;20026;-71
2023/05/24 04:10:06;;;;;;;24.83;7.63;;;;;;;4.84;100.00;102269.50;5001754;28;20030;-70
2023/05/24 04:12:31;;;;;;;24.65;7.45;;;;;;;4.87;100.00;102264.41;5002313;28;20030;-71
2023/05/24 04:14:58;;;;;;;23.33;7.22;;;;;;;4.90;100.00;102268.91;4984980;28;20065;-70
2023/05/24 04:17:24;;;;;;;22.15;7.10;;;;;;;4.97;100.00;102270.13;5001012;28;20034;-71
2023/05/24 04:19:50;;;;;;;24.17;8.05;;;;;;;4.98;100.00;102278.06;5001455;28;20038;-71
2023/05/24 04:22:17;;;;;;;26.50;8.20;;;;;;;5.01;100.00;102277.28;5001835;28;20027;-69
2023/05/24 04:24:43;;;;;;;24.50;8.07;;;;;;;5.05;100.00;102279.25;5003427;28;20104;-71
2023/05/24 04:27:08;;;;;;;25.25;8.02;;;;;;;5.12;100.00;102280.47;5002378;28;20489;-70
2023/05/24 04:29:34;;;;;;;25.42;8.15;;;;;;;5.16;100.00;102271.94;5001856;28;20366;-71
2023/05/24 04:31:59;;;;;;;24.40;7.78;;;;;;;5.29;100.00;102278.69;5001899;28;20397;-71
2023/05/24 04:34:28;;;;;;;23.85;7.68;;;;;;;5.29;100.00;102276.97;5002610;28;20029;-71
2023/05/24 04:36:54;;;;;;;23.60;7.55;;;;;;;5.32;100.00;102279.72;5001723;28;20157;-71
2023/05/24 04:39:19;;;;;;;26.85;8.18;;;;;;;5.38;100.00;102279.13;5001367;28;20170;-70
2023/05/24 04:41:45;;;;;;;24.38;8.10;;;;;;;5.36;100.00;102273.81;4998304;28;20117;-70
2023/05/24 04:44:10;;;;;;;26.67;8.25;;;;;;;5.45;100.00;102280.34;5002800;28;20388;-69
2023/05/24 04:46:36;;;;;;;24.58;8.38;;;;;;;5.55;100.00;102291.31;5001614;28;20557;-70
2023/05/24 04:49:01;;;;;;;24.90;8.35;;;;;;;5.59;100.00;102279.25;5001796;28;20440;-71
2023/05/24 04:51:26;;;;;;;26.42;9.02;;;;;;;5.65;100.00;102284.81;4983677;28;20027;-70
2023/05/24 04:53:52;;;;;;;27.13;9.07;;;;;;;5.63;100.00;102285.56;5003347;28;20108;-71
2023/05/24 04:56:18;;;;;;;24.85;8.88;;;;;;;5.71;100.00;102279.84;5002150;28;20397;-71
2023/05/24 04:58:43;;;;;;;28.20;9.88;;;;;;;5.73;100.00;102287.78;5001961;28;20125;-71
2023/05/24 05:01:09;;;;;;;26.33;9.48;;;;;;;5.76;100.00;102288.81;5003851;28;20065;-71
2023/05/24 05:03:34;;;;;;;28.65;10.07;;;;;;;5.78;100.00;102286.25;5004573;28;20030;-71
2023/05/24 05:06:00;;;;;;;25.80;9.20;;;;;;;5.86;100.00;102284.91;5005122;28;20457;-71
2023/05/24 05:08:25;;;;;;;26.33;9.38;;;;;;;5.89;100.00;102277.16;5005743;28;20041;-70
2023/05/24 05:10:51;;;;;;;27.25;9.35;;;;;;;5.94;100.00;102272.13;5006078;28;20030;-70
2023/05/24 05:13:16;;;;;;;29.20;9.40;;;;;;;5.97;100.00;102281.88;5005888;28;20144;-71
2023/05/24 05:15:41;;;;;;;26.33;9.65;;;;;;;6.07;100.00;102287.66;5003984;28;20057;-70
2023/05/24 05:18:07;;;;;;;28.38;9.73;;;;;;;6.15;100.00;102284.50;4986582;28;20045;-71
2023/05/24 05:20:32;;;;;;;26.80;9.45;;;;;;;6.23;100.00;102293.59;5005394;28;20494;-69
2023/05/24 05:22:58;;;;;;;28.85;9.65;;;;;;;6.33;100.00;102285.28;5005059;28;20033;-70
2023/05/24 05:25:23;;;;;;;29.30;10.02;;;;;;;6.45;100.00;102292.81;5007886;28;20034;-71
2023/05/24 05:27:49;;;;;;;26.95;9.45;;;;;;;6.59;100.00;102294.34;5004908;28;20033;-68
2023/05/24 05:30:14;;;;;;;25.70;9.35;;;;;;;6.69;100.00;102294.75;5004018;28;20452;-67
2023/05/24 05:32:40;;;;;;;28.00;9.77;;;;;;;6.82;100.00;102294.44;5004264;28;20033;-67
2023/05/24 05:35:06;;;;;;;27.23;9.50;;;;;;;6.90;100.00;102295.69;5004318;28;20045;-66
2023/05/24 05:37:31;;;;;;;26.85;9.13;;;;;;;6.97;100.00;102292.47;5004207;28;20097;-70
2023/05/24 05:39:56;;;;;;;25.92;9.32;;;;;;;7.10;100.00;102285.09;4986338;28;20121;-69
2023/05/24 05:42:22;;;;;;;27.48;9.25;;;;;;;7.15;100.00;102288.81;5003576;28;20064;-67
2023/05/24 05:44:47;;;;;;;28.17;9.57;;;;;;;7.24;100.00;102283.94;5002091;28;20034;-67
2023/05/24 05:47:13;;;;;;;28.20;9.55;;;;;;;7.32;100.00;102287.78;5004156;28;20501;-70
2023/05/24 05:49:38;;;;;;;26.05;9.02;;;;;;;7.40;100.00;102289.81;5004608;28;20083;-68
2023/05/24 05:52:04;;;;;;;26.25;8.85;;;;;;;7.45;100.00;102294.41;5003890;28;20069;-67
2023/05/24 05:54:30;;;;;;;27.13;9.32;;;;;;;7.53;100.00;102297.38;5001145;28;20045;-70
2023/05/24 05:56:55;;;;;;;25.95;8.77;;;;;;;7.63;100.00;102299.53;5006932;28;20127;-65
2023/05/24 05:59:21;;;;;;;27.73;9.80;;;;;;;7.74;100.00;102297.31;5003001;28;20394;-64
2023/05/24 06:01:47;;;;;;;28.80;9.77;;;;;;;7.82;100.00;102308.13;5004029;28;20476;-64
2023/05/24 06:04:16;;;;;;;27.23;9.35;;;;;;;7.91;100.00;102305.88;5002790;28;20101;-64
2023/05/24 06:06:44;;;;;;;27.25;9.30;;;;;;;8.01;100.00;102308.00;5003719;28;20025;-63
2023/05/24 06:09:09;;;;;;;26.73;8.90;;;;;;;8.12;100.00;102310.16;5004447;28;20038;-64
2023/05/24 06:11:35;;;;;;;29.15;9.55;;;;;;;8.19;100.00;102309.53;5003801;28;20038;-66
2023/05/24 06:14:01;;;;;;;28.05;9.45;;;;;;;8.29;100.00;102309.03;5004276;28;20118;-62
2023/05/24 06:16:27;;;;;;;27.55;9.35;;;;;;;8.41;100.00;102313.88;5003356;28;20030;-63
2023/05/24 06:18:53;;;;;;;28.52;9.80;;;;;;;8.50;100.00;102318.59;5004470;28;20086;-61
2023/05/24 06:21:18;;;;;;;30.05;9.80;;;;;;;8.59;100.00;102318.97;5002557;28;20480;-63
2023/05/24 06:23:44;;;;;;;27.83;9.68;;;;;;;8.69;100.00;102315.81;5003170;28;20062;-61
2023/05/24 06:26:09;;;;;;;28.88;10.10;;;;;;;8.77;100.00;102313.44;5003744;28;20030;-63
2023/05/24 06:28:35;;;;;;;27.60;9.80;;;;;;;8.84;100.00;102315.44;5003116;28;20545;-62
2023/05/24 06:31:02;;;;;;;27.27;9.75;;;;;;;8.95;100.00;102313.16;5004387;28;20037;-61
2023/05/24 06:33:27;;;;;;;28.20;10.23;;;;;;;9.06;100.00;102317.06;5003655;28;20026;-61
2023/05/24 06:35:53;;;;;;;28.00;9.70;;;;;;;9.21;100.00;102323.72;5004414;28;20030;-61
2023/05/24 06:38:18;;;;;;;27.60;9.90;;;;;;;9.37;100.00;102318.09;5004253;28;20117;-64
2023/05/24 06:40:43;;;;;;;31.25;10.10;;;;;;;9.57;100.00;102317.84;4986649;28;20037;-63
2023/05/24 06:43:09;;;;;;;26.83;9.82;;;;;;;9.80;100.00;102322.94;5003568;28;20489;-62
2023/05/24 06:45:36;;;;;;;30.02;10.40;;;;;;;9.84;100.00;102317.78;5002322;28;20369;-63
2023/05/24 06:48:01;;;;;;;28.98;9.43;;;;;;;9.95;100.00;102319.03;5003711;28;20085;-62
2023/05/24 06:50:27;;;;;;;29.73;10.07;;;;;;;10.04;100.00;102315.78;5002521;28;20033;-63
2023/05/24 06:52:52;;;;;;;27.83;9.60;;;;;;;10.15;100.00;102313.47;5000515;28;20151;-67
2023/05/24 06:55:19;;;;;;;30.70;10.32;;;;;;;10.36;100.00;102314.97;5002122;28;20030;-64
2023/05/24 06:57:44;;;;;;;29.13;10.32;;;;;;;10.69;100.00;102320.31;5003421;28;20128;-64
2023/05/24 07:00:11;;;;;;;31.02;10.02;;;;;;;11.08;100.00;102323.94;5003223;28;20145;-64
2023/05/24 07:02:38;;;;;;;28.92;10.23;;;;;;;11.24;100.00;102318.22;5003906;28;20133;-63
2023/05/24 07:05:05;;;;;;;27.77;9.70;;;;;;;11.13;100.00;102312.63;5003582;28;20058;-65
2023/05/24 07:07:31;;;;;;;26.08;10.00;;;;;;;11.03;100.00;102323.84;4985233;28;20084;-66
2023/05/24 07:09:56;;;;;;;27.98;10.65;;;;;;;10.98;100.00;102314.91;5003260;28;20096;-65
2023/05/24 07:12:22;;;;;;;30.90;10.00;;;;;;;11.02;100.00;102314.09;5003450;28;20468;-64
2023/05/24 07:14:47;;;;;;;28.58;9.90;;;;;;;11.21;100.00;102310.16;5002285;28;20037;-65
2023/05/24 07:17:13;;;;;;;28.10;10.38;;;;;;;11.39;100.00;102319.41;5002920;28;20030;-67
2023/05/24 07:19:38;;;;;;;28.15;9.95;;;;;;;11.69;100.00;102320.19;5002449;28;20077;-64
2023/05/24 07:22:04;;;;;;;28.60;10.07;;;;;;;12.02;100.00;102323.56;5002284;28;20381;-67
2023/05/24 07:24:29;;;;;;;25.25;9.70;;;;;;;12.28;100.00;102320.59;5002964;28;20073;-65
2023/05/24 07:26:57;;;;;;;28.80;9.80;;;;;;;12.31;100.00;102320.66;4998350;28;20026;-65
2023/05/24 07:29:23;;;;;;;26.15;10.05;;;;;;;12.43;100.00;102323.53;5003228;28;20030;-66
2023/05/24 07:31:48;;;;;;;27.50;10.40;;;;;;;12.46;100.00;102317.41;5002963;28;20042;-67
2023/05/24 07:34:14;;;;;;;26.00;9.27;;;;;;;12.46;100.00;102320.06;5001694;28;20026;-68
2023/05/24 07:36:41;;;;;;;25.45;9.18;;;;;;;12.53;100.00;102327.28;4984523;28;20046;-66
2023/05/24 07:39:08;;;;;;;25.10;9.60;;;;;;;12.60;100.00;102329.19;5002115;28;20033;-67
2023/05/24 07:41:34;;;;;;;24.63;9.43;;;;;;;12.72;100.00;102331.19;5001995;28;20370;-67
2023/05/24 07:43:59;;;;;;;24.67;8.60;;;;;;;12.89;100.00;102326.19;5004880;28;20164;-66
2023/05/24 07:46:25;;;;;;;24.13;8.57;;;;;;;13.22;100.00;102333.88;5001892;28;20042;-67
2023/05/24 07:48:51;;;;;;;25.23;7.90;;;;;;;13.50;100.00;102333.44;5002087;28;20058;-68
2023/05/24 07:51:16;;;;;;;26.48;8.20;;;;;;;13.73;100.00;102329.41;5002621;28;20504;-71
2023/05/24 07:53:42;;;;;;;24.77;8.40;;;;;;;13.93;100.00;102321.69;5002554;28;20038;-66
2023/05/24 07:56:08;;;;;;;23.42;7.20;;;;;;;14.15;100.00;102321.09;4971841;28;20044;-70
2023/05/24 07:58:34;;;;;;;23.70;6.88;;;;;;;13.92;100.00;102327.88;4952412;28;20471;-68
2023/05/24 08:00:59;;;;;;;21.83;6.13;;;;;;;13.57;100.00;102332.66;5001288;28;20066;-66
2023/05/24 08:03:25;;;;;;;23.70;6.55;;;;;;;13.41;100.00;102328.88;4984292;28;20393;-66
2023/05/24 08:05:50;;;;;;;23.35;6.35;;;;;;;13.60;100.00;102330.97;5002537;28;20117;-67
2023/05/24 08:08:16;;;;;;;22.92;6.43;;;;;;;13.89;100.00;102327.84;5002380;28;20084;-67
2023/05/24 08:10:41;;;;;;;25.25;6.00;;;;;;;13.84;100.00;102326.00;5002215;28;20026;-66
2023/05/24 08:13:07;;;;;;;23.08;6.20;;;;;;;13.81;100.00;102323.28;5001726;28;20030;-66
2023/05/24 08:15:32;;;;;;;23.50;6.07;;;;;;;14.01;100.00;102323.56;5002843;28;20031;-68
2023/05/24 08:17:58;;;;;;;22.45;6.22;;;;;;;14.11;100.00;102322.78;5001455;28;20161;-68
2023/05/24 08:20:23;;;;;;;21.83;5.45;;;;;;;13.98;100.00;102326.16;5000011;28;20058;-68
2023/05/24 08:22:48;;;;;;;22.77;5.85;;;;;;;13.98;100.00;102328.81;5001897;28;20221;-70
2023/05/24 08:25:14;;;;;;;23.85;5.63;;;;;;;14.11;96.34;102329.03;5002369;28;20033;-69
2023/05/24 08:27:40;;;;;;;21.60;5.15;;;;;;;14.35;91.64;102324.00;5002062;28;20042;-68
2023/05/24 08:30:07;;;;;;;20.85;5.65;;;;;;;14.53;94.28;102313.56;5002208;28;20030;-70
2023/05/24 08:32:32;;;;;;;23.45;5.65;;;;;;;14.80;91.07;102317.44;5001184;28;20491;-70
2023/05/24 08:34:58;;;;;;;21.52;5.47;;;;;;;15.11;88.74;102318.59;5000619;28;20030;-70
2023/05/24 08:37:23;;;;;;;21.52;5.50;;;;;;;15.18;87.12;102322.22;5005957;28;20113;-70
2023/05/24 08:39:48;;;;;;;23.05;5.63;;;;;;;14.98;82.88;102309.66;5005919;28;20037;-69
2023/05/24 08:42:14;;;;;;;21.85;5.65;;;;;;;15.20;78.91;102312.47;5006343;28;20041;-70
2023/05/24 08:44:48;;;;;;;21.80;5.57;;;;;;;15.26;79.91;102314.28;5003913;28;20042;-70
2023/05/24 08:47:14;;;;;;;19.73;5.50;;;;;;;15.40;79.92;102304.63;5005698;28;20597;-71
2023/05/24 08:49:41;;;;;;;19.98;5.30;;;;;;;15.30;79.69;102308.13;4988286;28;20026;-71
2023/05/24 08:52:08;;;;;;;22.15;6.00;;;;;;;15.58;78.15;102308.31;5004684;28;20112;-67
2023/05/24 08:54:35;;;;;;;20.60;5.40;;;;;;;15.76;74.06;102302.22;5005294;28;20030;-67
2023/05/24 08:57:02;;;;;;;22.45;5.53;;;;;;;15.66;76.71;102299.50;5004394;28;20136;-65
2023/05/24 08:59:28;;;;;;;22.95;5.60;;;;;;;15.53;73.73;102302.97;4986886;28;20469;-65
2023/05/24 09:01:53;;;;;;;22.20;5.60;;;;;;;15.42;74.02;102308.22;5004762;28;20474;-65
2023/05/24 09:04:21;;;;;;;21.98;5.57;;;;;;;15.13;76.41;102305.31;4999295;28;20022;-66
2023/05/24 09:06:47;;;;;;;21.95;5.55;;;;;;;14.81;77.78;102293.50;5004788;28;20038;-68
2023/05/24 09:09:17;;;;;;;23.77;5.88;;;;;;;14.89;84.58;102295.34;5004525;28;20531;-66
2023/05/24 09:11:46;;;;;;;22.25;5.97;;;;;;;14.95;81.59;102298.94;5003983;28;20038;-66
2023/05/24 09:14:12;;;;;;;20.27;5.60;;;;;;;15.54;80.09;102295.84;4987651;28;20030;-66
2023/05/24 09:16:38;;;;;;;22.20;5.47;;;;;;;15.78;75.76;102292.47;5005302;28;20033;-65
2023/05/24 09:19:03;;;;;;;22.38;5.38;;;;;;;15.63;70.81;102294.13;5004057;28;20029;-66
2023/05/24 09:21:29;;;;;;;21.33;5.18;;;;;;;16.15;71.78;102296.22;5005972;28;20070;-65
2023/05/24 09:23:54;;;;;;;20.42;5.47;;;;;;;16.64;69.20;102298.16;5002222;28;20692;-65
2023/05/24 09:26:20;;;;;;;22.60;5.80;;;;;;;16.50;66.50;102291.91;5004832;28;20038;-65
2023/05/24 09:28:46;;;;;;;21.08;5.35;;;;;;;16.11;66.43;102298.88;5005420;28;20044;-66
2023/05/24 09:31:12;;;;;;;19.98;5.00;;;;;;;15.76;68.21;102291.56;5003579;28;20025;-65
2023/05/24 09:33:38;;;;;;;19.35;5.00;;;;;;;15.66;69.32;102304.81;5004632;28;20037;-66
2023/05/24 09:36:05;;;;;;;21.77;5.18;;;;;;;15.72;67.21;102295.09;4989625;28;20440;-65
2023/05/24 09:38:31;;;;;;;22.10;5.20;;;;;;;15.74;67.44;102298.66;5005489;28;20474;-66
2023/05/24 09:41:01;;;;;;;19.90;4.88;;;;;;;15.94;63.58;102291.69;5005693;28;20073;-66
2023/05/24 09:43:29;;;;;;;22.27;4.90;;;;;;;16.31;66.63;102275.84;5004705;28;20029;-64
2023/05/24 09:45:56;;;;;;;20.23;5.00;;;;;;;16.83;62.14;102296.41;5005233;28;20109;-65
2023/05/24 09:48:22;;;;;;;19.92;4.50;;;;;;;16.78;60.80;102286.63;5003741;28;20030;-66
2023/05/24 09:51:17;;;;;;;18.92;4.60;;;;;;;16.67;63.05;102294.59;5004995;28;20061;-66
2023/05/24 09:53:45;;;;;;;19.23;4.88;;;;;;;16.15;59.18;102292.66;4984289;28;20053;-67
2023/05/24 09:56:11;;;;;;;21.05;4.60;;;;;;;16.00;62.41;102291.72;4985298;28;20026;-65
2023/05/24 09:58:38;;;;;;;18.08;4.50;;;;;;;15.83;60.98;102291.63;5004391;28;20057;-64
2023/05/24 10:01:13;;;;;;;21.30;4.68;;;;;;;16.79;62.27;102291.06;5004212;28;20026;-64
2023/05/24 10:03:51;;;;;;;19.60;4.63;;;;;;;20.40;53.38;102286.25;5004032;28;20022;-66
2023/05/24 10:06:17;;;;;;;17.17;4.13;;;;;;;21.31;45.16;102287.53;5004484;28;20547;-66
2023/05/24 10:08:43;;;;;;;18.60;4.38;;;;;;;22.55;43.45;102283.28;5005020;28;20022;-65
2023/05/24 10:11:08;;;;;;;20.63;4.63;;;;;;;21.17;43.50;102285.13;5003828;28;20029;-65
2023/05/24 10:13:35;;;;;;;18.73;4.55;;;;;;;19.95;47.27;102285.94;5005003;28;20469;-65
2023/05/24 10:16:01;;;;;;;19.63;4.75;;;;;;;19.21;49.04;102286.69;5004539;28;20022;-65
2023/05/24 10:18:27;;;;;;;20.63;4.68;;;;;;;20.45;47.36;102283.53;5003543;28;20053;-64
2023/05/24 10:20:55;;;;;;;19.75;4.80;;;;;;;21.65;43.19;102283.38;5003720;28;20030;-65
2023/05/24 10:23:22;;;;;;;20.45;5.10;;;;;;;20.64;43.97;102287.69;5004778;28;20026;-65
2023/05/24 10:25:55;;;;;;;17.77;4.22;;;;;;;19.80;47.94;102271.81;5002881;28;20026;-66
2023/05/24 10:28:22;;;;;;;20.73;4.65;;;;;;;19.19;47.85;102269.75;5002628;28;20142;-65
2023/05/24 10:31:11;;;;;;;23.92;5.00;;;;;;;18.42;50.63;102269.38;5003797;28;20473;-65
2023/05/24 10:33:39;;;;;;;20.88;4.70;;;;;;;17.90;52.74;102269.63;5002809;28;20081;-64
2023/05/24 10:36:07;;;;;;;18.85;4.30;;;;;;;19.59;47.89;102269.34;5003300;28;20050;-65
2023/05/24 10:38:33;;;;;;;20.00;4.20;;;;;;;22.18;43.56;102273.31;5002581;28;20692;-65
2023/05/24 10:40:59;;;;;;;19.35;4.35;;;;;;;23.20;39.61;102270.94;5002396;28;20485;-63
2023/05/24 10:43:25;;;;;;;20.25;4.10;;;;;;;22.05;40.04;102266.44;4985773;28;20092;-66
2023/05/24 10:45:50;;;;;;;18.52;4.22;;;;;;;21.38;42.82;102262.31;5003845;28;20072;-64
2023/05/24 10:48:16;;;;;;;17.58;4.10;;;;;;;20.72;43.22;102266.13;5003141;28;20390;-65
2023/05/24 10:50:42;;;;;;;20.30;4.13;;;;;;;19.85;45.32;102264.59;5002794;28;20494;-64
2023/05/24 10:53:12;;;;;;;20.30;4.88;;;;;;;19.29;46.17;102269.63;5002505;28;20394;-64
2023/05/24 10:56:02;;;;;;;17.20;4.00;;;;;;;19.10;48.48;102266.22;5003305;28;20054;-67
2023/05/24 10:58:31;;;;;;;18.25;4.05;;;;;;;20.93;45.51;102258.66;5002751;28;20053;-65
2023/05/24 11:00:57;;;;;;;18.73;4.00;;;;;;;21.46;43.29;102262.16;5003062;28;20022;-65
2023/05/24 11:03:23;;;;;;;22.75;4.43;;;;;;;20.99;44.11;102263.91;5002862;28;20041;-64
2023/05/24 11:05:51;;;;;;;19.88;4.40;;;;;;;20.41;43.67;102258.50;5004226;28;20027;-64
2023/05/24 11:08:42;;;;;;;21.20;4.40;;;;;;;19.96;45.81;102267.13;5001696;28;20049;-64
2023/05/24 11:11:08;;;;;;;19.52;4.25;;;;;;;19.70;45.42;102262.06;5003959;28;20033;-66
2023/05/24 11:13:35;;;;;;;19.08;4.40;;;;;;;19.44;45.22;102268.59;5003703;28;20084;-67